createdAt,value
2019-03-10T00:01:21.359Z,2.07
2019-03-10T00:03:48.841Z,1.63
2019-03-10T00:06:16.623Z,2.27
2019-03-10T00:08:44.000Z,1.40
2019-03-10T00:11:11.364Z,1.83
2019-03-10T00:13:38.920Z,2.07
2019-03-10T00:16:06.416Z,1.80
2019-03-10T00:18:33.920Z,1.93
2019-03-10T00:21:01.699Z,1.50
2019-03-10T00:23:29.826Z,2.17
2019-03-10T00:25:57.600Z,1.90
2019-03-10T00:28:25.231Z,1.93
2019-03-10T00:30:53.069Z,1.47
2019-03-10T00:33:21.007Z,1.40
2019-03-10T00:35:48.357Z,1.60
2019-03-10T00:38:15.703Z,1.53
2019-03-10T00:41:31.808Z,1.83
2019-03-10T00:44:36.885Z,1.43
2019-03-10T00:47:45.147Z,1.77
2019-03-10T00:50:47.087Z,1.70
2019-03-10T00:53:14.481Z,1.70
2019-03-10T00:55:42.227Z,1.80
2019-03-10T00:58:09.742Z,1.57
2019-03-10T01:00:37.235Z,1.40
2019-03-10T01:03:04.725Z,2.10
2019-03-10T01:05:44.896Z,1.40
2019-03-10T01:08:12.312Z,1.53
2019-03-10T01:10:39.767Z,1.40
2019-03-10T01:13:07.444Z,1.63
2019-03-10T01:15:35.628Z,1.60
2019-03-10T01:18:03.289Z,1.57
2019-03-10T01:20:30.639Z,1.73
2019-03-10T01:22:58.145Z,1.53
2019-03-10T01:25:25.466Z,1.30
2019-03-10T01:27:53.339Z,1.47
2019-03-10T01:30:21.086Z,1.40
2019-03-10T01:33:25.551Z,1.60
2019-03-10T01:35:52.883Z,1.30
2019-03-10T01:38:20.344Z,1.43
2019-03-10T01:40:47.644Z,1.27
2019-03-10T01:43:15.031Z,1.40
2019-03-10T01:45:43.575Z,1.33
2019-03-10T01:48:10.940Z,1.30
2019-03-10T01:50:38.419Z,1.23
2019-03-10T01:53:05.816Z,1.37
2019-03-10T01:55:33.310Z,1.00
2019-03-10T01:58:01.105Z,1.30
2019-03-10T02:00:28.439Z,1.40
2019-03-10T02:02:56.116Z,1.33
2019-03-10T02:05:23.618Z,1.30
2019-03-10T02:07:51.157Z,1.00
2019-03-10T02:10:19.184Z,1.20
2019-03-10T02:12:46.534Z,1.20
2019-03-10T02:15:14.241Z,1.10
2019-03-10T02:17:42.184Z,0.90
2019-03-10T02:20:11.963Z,0.80
2019-03-10T02:22:39.435Z,0.80
2019-03-10T02:25:06.961Z,0.90
2019-03-10T02:27:34.692Z,0.80
2019-03-10T02:30:02.462Z,0.80
2019-03-10T02:32:30.409Z,0.70
2019-03-10T02:34:58.056Z,0.60
2019-03-10T02:37:25.759Z,0.90
2019-03-10T02:39:53.555Z,1.23
2019-03-10T02:42:21.226Z,0.80
2019-03-10T02:44:48.918Z,0.70
2019-03-10T02:47:16.405Z,0.60
2019-03-10T02:49:44.123Z,0.70
2019-03-10T02:52:11.642Z,0.70
2019-03-10T02:54:39.673Z,0.60
2019-03-10T02:57:07.059Z,0.57
2019-03-10T02:59:34.684Z,0.60
2019-03-10T03:02:02.095Z,0.80
2019-03-10T03:04:31.320Z,0.80
2019-03-10T03:06:58.670Z,0.80
2019-03-10T03:09:26.299Z,0.97
2019-03-10T03:11:53.687Z,0.60
2019-03-10T03:14:21.344Z,0.70
2019-03-10T03:16:48.867Z,0.60
2019-03-10T03:19:16.280Z,0.70
2019-03-10T03:21:44.259Z,0.60
2019-03-10T03:24:11.620Z,0.60
2019-03-10T03:26:39.287Z,0.60
2019-03-10T03:29:07.166Z,0.70
2019-03-10T03:31:34.677Z,0.70
2019-03-10T03:34:02.812Z,0.90
2019-03-10T03:36:33.158Z,0.70
2019-03-10T03:39:19.202Z,0.60
2019-03-10T03:41:46.890Z,0.80
2019-03-10T03:44:14.922Z,0.70
2019-03-10T03:46:42.887Z,0.70
2019-03-10T03:49:10.762Z,0.80
2019-03-10T03:51:38.240Z,0.80
2019-03-10T03:54:06.445Z,0.70
2019-03-10T03:56:33.876Z,0.87
2019-03-10T03:59:01.355Z,1.00
2019-03-10T04:01:32.889Z,0.90
2019-03-10T04:04:00.711Z,0.83
2019-03-10T04:06:28.135Z,1.07
2019-03-10T04:08:55.552Z,0.87
2019-03-10T04:11:23.303Z,0.97
2019-03-10T04:13:51.429Z,0.80
2019-03-10T04:16:19.161Z,0.90
2019-03-10T04:18:46.760Z,0.90
2019-03-10T04:21:14.216Z,0.77
2019-03-10T04:23:41.915Z,0.97
2019-03-10T04:26:09.302Z,1.03
2019-03-10T04:28:37.858Z,0.80
2019-03-10T04:31:05.188Z,0.90
2019-03-10T04:33:32.659Z,1.00
2019-03-10T04:36:00.236Z,1.17
2019-03-10T04:38:27.799Z,1.00
2019-03-10T04:40:55.122Z,1.17
2019-03-10T04:43:22.895Z,0.93
2019-03-10T04:45:50.562Z,0.80
2019-03-10T04:48:18.323Z,0.83
2019-03-10T04:50:45.813Z,1.23
2019-03-10T04:53:13.223Z,0.60
2019-03-10T04:55:46.157Z,0.90
2019-03-10T04:58:14.818Z,0.87
2019-03-10T05:00:43.541Z,0.70
2019-03-10T05:03:10.900Z,0.70
2019-03-10T05:05:38.708Z,0.70
2019-03-10T05:08:06.212Z,0.70
2019-03-10T05:10:34.068Z,0.70
2019-03-10T05:13:01.608Z,0.50
2019-03-10T05:15:29.118Z,0.73
2019-03-10T05:17:56.609Z,0.50
2019-03-10T05:20:24.412Z,0.70
2019-03-10T05:23:13.362Z,0.57
2019-03-10T05:25:40.731Z,0.40
2019-03-10T05:28:08.077Z,0.50
2019-03-10T05:30:36.752Z,0.50
2019-03-10T05:33:04.116Z,0.60
2019-03-10T05:35:31.851Z,0.47
2019-03-10T05:37:59.367Z,0.60
2019-03-10T05:40:26.996Z,0.57
2019-03-10T05:42:54.393Z,0.50
2019-03-10T05:45:21.864Z,0.50
2019-03-10T05:47:49.630Z,0.50
2019-03-10T05:50:17.272Z,0.60
2019-03-10T05:52:44.742Z,0.70
2019-03-10T05:55:12.496Z,0.60
2019-03-10T05:57:39.894Z,0.60
2019-03-10T06:00:07.436Z,0.53
2019-03-10T06:02:35.190Z,0.50
2019-03-10T06:05:02.890Z,0.50
2019-03-10T06:07:30.631Z,0.73
2019-03-10T06:09:58.378Z,0.70
2019-03-10T06:12:26.043Z,0.70
2019-03-10T06:14:54.132Z,0.70
2019-03-10T06:17:22.195Z,0.50
2019-03-10T06:19:50.189Z,0.47
2019-03-10T06:22:17.679Z,0.70
2019-03-10T06:24:45.153Z,0.50
2019-03-10T06:27:13.252Z,0.70
2019-03-10T06:29:41.026Z,0.60
2019-03-10T06:32:08.993Z,0.50
2019-03-10T06:34:36.357Z,0.50
2019-03-10T06:37:03.975Z,0.80
2019-03-10T06:39:31.708Z,0.50
2019-03-10T06:41:59.224Z,0.80
2019-03-10T06:44:26.539Z,0.53
2019-03-10T06:46:53.930Z,0.60
2019-03-10T06:49:21.294Z,0.50
2019-03-10T06:51:48.740Z,0.50
2019-03-10T06:54:16.243Z,0.60
2019-03-10T06:56:43.630Z,0.60
2019-03-10T06:59:11.219Z,0.50
2019-03-10T07:01:39.926Z,0.50
2019-03-10T07:04:07.809Z,0.50
2019-03-10T07:06:35.676Z,0.80
2019-03-10T07:09:04.498Z,0.50
2019-03-10T07:11:33.500Z,0.70
2019-03-10T07:14:00.831Z,0.60
2019-03-10T07:16:28.635Z,0.53
2019-03-10T07:18:55.941Z,0.60
2019-03-10T07:21:23.756Z,0.60
2019-03-10T07:23:51.529Z,0.50
2019-03-10T07:26:18.991Z,0.70
2019-03-10T07:29:03.451Z,0.53
2019-03-10T07:31:50.336Z,0.50
2019-03-10T07:34:35.367Z,0.60
2019-03-10T07:37:20.639Z,0.60
2019-03-10T07:40:11.296Z,0.50
2019-03-10T07:42:44.534Z,0.47
2019-03-10T07:45:17.531Z,0.50
2019-03-10T07:48:07.911Z,0.80
2019-03-10T07:50:54.913Z,0.60
2019-03-10T07:53:32.509Z,0.57
2019-03-10T07:56:08.127Z,0.93
2019-03-10T07:58:57.969Z,0.80
2019-03-10T08:01:37.040Z,0.70
2019-03-10T08:04:33.997Z,0.90
2019-03-10T08:07:21.335Z,0.70
2019-03-10T08:09:59.859Z,0.77
2019-03-10T08:12:47.265Z,1.27
2019-03-10T08:15:32.324Z,0.60
2019-03-10T08:18:17.895Z,0.80
2019-03-10T08:21:03.395Z,0.60
2019-03-10T08:23:45.427Z,0.50
2019-03-10T08:26:31.679Z,0.83
2019-03-10T08:29:06.898Z,0.50
2019-03-10T08:31:43.796Z,0.60
2019-03-10T08:34:37.908Z,0.73
2019-03-10T08:37:20.944Z,0.70
2019-03-10T08:40:07.120Z,0.60
2019-03-10T08:42:43.633Z,0.70
2019-03-10T08:45:29.557Z,0.70
2019-03-10T08:48:31.747Z,0.70
2019-03-10T08:51:17.544Z,1.23
2019-03-10T08:53:52.602Z,1.07
2019-03-10T08:56:49.061Z,0.80
2019-03-10T08:59:37.039Z,0.90
2019-03-10T09:02:17.885Z,1.80
2019-03-10T09:05:07.622Z,1.10
2019-03-10T09:07:53.941Z,0.80
2019-03-10T09:10:40.974Z,0.93
2019-03-10T09:13:27.151Z,1.00
2019-03-10T09:16:23.515Z,0.70
2019-03-10T09:19:09.086Z,0.70
2019-03-10T09:21:49.809Z,0.60
2019-03-10T09:24:42.544Z,1.30
2019-03-10T09:27:28.290Z,0.80
2019-03-10T09:30:24.142Z,0.90
2019-03-10T09:33:01.689Z,0.90
2019-03-10T09:35:39.242Z,0.80
2019-03-10T09:38:19.651Z,0.90
2019-03-10T09:41:06.209Z,0.70
2019-03-10T09:43:52.146Z,1.33
2019-03-10T09:46:37.989Z,1.10
2019-03-10T09:49:39.927Z,1.23
2019-03-10T09:52:35.753Z,1.40
2019-03-10T09:55:25.661Z,1.60
2019-03-10T09:58:11.708Z,1.10
2019-03-10T10:01:04.224Z,1.80
2019-03-10T10:03:51.040Z,1.80
2019-03-10T10:06:34.039Z,2.13
2019-03-10T10:09:08.995Z,2.77
2019-03-10T10:11:46.954Z,1.93
2019-03-10T10:14:37.900Z,1.40
2019-03-10T10:17:23.937Z,2.13
2019-03-10T10:20:09.264Z,1.40
2019-03-10T10:22:59.419Z,1.63
2019-03-10T10:25:55.650Z,1.40
2019-03-10T10:28:48.489Z,0.90
2019-03-10T10:31:38.251Z,0.80
2019-03-10T10:34:40.427Z,0.70
2019-03-10T10:37:27.485Z,0.50
2019-03-10T10:40:01.736Z,0.60
2019-03-10T10:42:52.005Z,0.60
2019-03-10T10:45:57.245Z,0.70
2019-03-10T10:48:34.111Z,0.60
2019-03-10T10:51:10.471Z,0.67
2019-03-10T10:53:47.410Z,0.80
2019-03-10T10:56:34.468Z,0.70
2019-03-10T10:59:22.472Z,1.20
2019-03-10T11:02:08.130Z,0.73
2019-03-10T11:05:12.975Z,0.73
2019-03-10T11:07:59.086Z,0.60
2019-03-10T11:10:43.690Z,0.70
2019-03-10T11:13:20.207Z,0.70
2019-03-10T11:16:19.095Z,0.60
2019-03-10T11:19:06.076Z,0.40
2019-03-10T11:21:51.735Z,0.43
2019-03-10T11:24:33.778Z,0.50
2019-03-10T11:27:12.763Z,0.37
2019-03-10T11:29:51.783Z,0.43
2019-03-10T11:32:29.409Z,0.40
2019-03-10T11:35:19.183Z,0.43
2019-03-10T11:38:18.045Z,0.47
2019-03-10T11:41:17.384Z,0.60
2019-03-10T11:44:04.651Z,0.60
2019-03-10T11:46:38.977Z,0.80
2019-03-10T11:49:26.290Z,0.57
2019-03-10T11:52:11.816Z,0.40
2019-03-10T11:55:04.815Z,0.60
2019-03-10T11:57:51.897Z,0.40
2019-03-10T12:00:27.125Z,0.77
2019-03-10T12:03:13.419Z,0.50
2019-03-10T12:06:05.989Z,0.60
2019-03-10T12:08:59.144Z,0.70
2019-03-10T12:11:26.471Z,0.70
2019-03-10T12:13:54.901Z,0.50
2019-03-10T12:16:22.619Z,0.50
2019-03-10T12:18:50.171Z,0.70
2019-03-10T12:21:17.558Z,0.50
2019-03-10T12:23:45.542Z,0.70
2019-03-10T12:26:12.996Z,0.60
2019-03-10T12:28:41.639Z,0.77
2019-03-10T12:31:09.681Z,0.70
2019-03-10T12:33:37.554Z,0.53
2019-03-10T12:36:04.924Z,0.70
2019-03-10T12:38:32.353Z,0.70
2019-03-10T12:41:00.153Z,0.53
2019-03-10T12:43:27.741Z,0.63
2019-03-10T12:45:55.347Z,0.60
2019-03-10T12:48:23.324Z,0.60
2019-03-10T12:50:51.328Z,1.00
2019-03-10T12:53:18.614Z,1.30
2019-03-10T12:55:46.071Z,1.03
2019-03-10T12:58:32.899Z,0.97
2019-03-10T13:01:06.134Z,0.60
2019-03-10T13:03:30.097Z,1.00
2019-03-10T13:05:57.733Z,1.00
2019-03-10T13:08:25.876Z,1.20
2019-03-10T13:10:53.558Z,1.10
2019-03-10T13:13:21.398Z,1.00
2019-03-10T13:15:48.994Z,0.83
2019-03-10T13:18:16.631Z,0.90
2019-03-10T13:20:44.128Z,1.27
2019-03-10T13:23:11.830Z,0.97
2019-03-10T13:25:39.633Z,1.40
2019-03-10T13:28:07.182Z,1.20
2019-03-10T13:30:34.556Z,1.07
2019-03-10T13:33:02.424Z,1.30
2019-03-10T13:35:30.108Z,1.17
2019-03-10T13:37:57.980Z,1.40
2019-03-10T13:40:25.877Z,0.83
2019-03-10T13:42:53.332Z,1.17
2019-03-10T13:45:23.036Z,1.03
2019-03-10T13:47:50.590Z,1.10
2019-03-10T13:50:17.980Z,1.00
2019-03-10T13:52:48.387Z,0.90
2019-03-10T13:55:16.067Z,1.43
2019-03-10T13:57:43.584Z,0.90
2019-03-10T14:00:12.860Z,1.07
2019-03-10T14:02:40.729Z,1.27
2019-03-10T14:05:08.363Z,0.73
2019-03-10T14:07:35.996Z,1.10
2019-03-10T14:10:04.063Z,1.50
2019-03-10T14:12:31.804Z,1.20
2019-03-10T14:14:59.136Z,0.80
2019-03-10T14:17:26.641Z,1.37
2019-03-10T14:19:55.128Z,1.00
2019-03-10T14:22:22.711Z,1.37
2019-03-10T14:24:50.170Z,1.30
2019-03-10T14:27:18.672Z,1.80
2019-03-10T14:29:46.182Z,1.30
2019-03-10T14:32:14.677Z,1.40
2019-03-10T14:34:42.473Z,0.87
2019-03-10T14:37:09.978Z,1.20
2019-03-10T14:39:37.453Z,1.30
2019-03-10T14:42:05.343Z,1.37
2019-03-10T14:44:35.076Z,2.30
2019-03-10T14:47:02.734Z,1.50
2019-03-10T14:49:30.436Z,1.73
2019-03-10T14:51:58.240Z,1.53
2019-03-10T14:54:26.000Z,1.63
2019-03-10T14:56:53.663Z,1.40
2019-03-10T14:59:22.343Z,1.73
2019-03-10T15:01:50.313Z,1.60
2019-03-10T15:04:21.153Z,1.67
2019-03-10T15:06:48.663Z,2.43
2019-03-10T15:09:17.183Z,1.80
2019-03-10T15:11:44.534Z,2.33
2019-03-10T15:14:13.853Z,2.27
2019-03-10T15:16:41.410Z,2.10
2019-03-10T15:19:09.144Z,1.73
2019-03-10T15:21:39.084Z,1.87
2019-03-10T15:24:06.837Z,2.13
2019-03-10T15:26:45.140Z,2.20
2019-03-10T15:29:04.669Z,2.20
2019-03-10T15:31:32.299Z,2.90
2019-03-10T15:33:59.663Z,2.03
2019-03-10T15:36:27.620Z,2.10
2019-03-10T15:38:55.097Z,2.53
2019-03-10T15:41:22.938Z,2.40
2019-03-10T15:43:50.844Z,2.70
2019-03-10T15:46:18.298Z,2.50
2019-03-10T15:48:45.925Z,2.73
2019-03-10T15:51:13.663Z,2.80
2019-03-10T15:53:41.458Z,2.77
2019-03-10T15:56:09.541Z,3.03
2019-03-10T15:58:37.344Z,2.67
2019-03-10T16:01:04.754Z,2.70
2019-03-10T16:03:32.614Z,2.40
2019-03-10T16:06:00.282Z,2.70
2019-03-10T16:08:27.943Z,2.57
2019-03-10T16:10:55.763Z,2.53
2019-03-10T16:13:23.113Z,2.20
2019-03-10T16:15:50.794Z,3.57
2019-03-10T16:18:18.602Z,2.57
2019-03-10T16:20:46.252Z,1.90
2019-03-10T16:23:13.696Z,2.20
2019-03-10T16:25:41.148Z,2.70
2019-03-10T16:28:08.751Z,2.57
2019-03-10T16:30:36.369Z,2.10
2019-03-10T16:33:03.731Z,2.40
2019-03-10T16:35:31.880Z,2.63
2019-03-10T16:37:59.216Z,2.20
2019-03-10T16:40:26.544Z,2.93
2019-03-10T16:42:54.692Z,3.77
2019-03-10T16:45:22.225Z,2.70
2019-03-10T16:47:49.771Z,2.53
2019-03-10T16:50:17.457Z,3.07
2019-03-10T16:52:45.651Z,3.10
2019-03-10T16:55:13.047Z,2.73
2019-03-10T16:57:40.663Z,2.00
2019-03-10T17:00:09.368Z,2.50
2019-03-10T17:02:37.038Z,2.70
2019-03-10T17:05:05.190Z,2.63
2019-03-10T17:07:32.680Z,3.23
2019-03-10T17:10:00.354Z,2.20
2019-03-10T17:12:28.240Z,2.57
2019-03-10T17:14:55.552Z,2.67
2019-03-10T17:17:23.064Z,2.50
2019-03-10T17:19:51.066Z,2.57
2019-03-10T17:22:18.609Z,2.43
2019-03-10T17:24:46.223Z,2.90
2019-03-10T17:27:13.736Z,2.20
2019-03-10T17:29:41.662Z,2.57
2019-03-10T17:32:09.159Z,2.27
2019-03-10T17:34:36.550Z,2.43
2019-03-10T17:37:04.022Z,2.73
2019-03-10T17:39:31.366Z,2.17
2019-03-10T17:41:58.895Z,3.40
2019-03-10T17:44:26.426Z,2.13
2019-03-10T17:46:53.974Z,2.20
2019-03-10T17:49:21.678Z,2.53
2019-03-10T17:51:50.543Z,2.30
2019-03-10T17:54:18.616Z,1.90
2019-03-10T17:56:46.688Z,2.20
2019-03-10T17:59:14.454Z,2.57
2019-03-10T18:01:41.766Z,2.00
2019-03-10T18:04:09.102Z,2.10
2019-03-10T18:06:36.553Z,2.07
2019-03-10T18:09:05.595Z,2.10
2019-03-10T18:11:34.100Z,2.33
2019-03-10T18:14:02.474Z,1.50
2019-03-10T18:16:29.919Z,2.60
2019-03-10T18:18:57.859Z,2.10
2019-03-10T18:21:25.433Z,1.63
2019-03-10T18:23:52.825Z,1.60
2019-03-10T18:26:20.883Z,1.40
2019-03-10T18:28:48.410Z,2.00
2019-03-10T18:31:15.936Z,2.10
2019-03-10T18:33:43.315Z,2.20
2019-03-10T18:36:11.008Z,1.70
2019-03-10T18:38:38.889Z,2.30
2019-03-10T18:41:06.480Z,2.07
2019-03-10T18:43:33.909Z,1.43
2019-03-10T18:46:01.780Z,1.93
2019-03-10T18:48:30.397Z,1.67
2019-03-10T18:50:57.873Z,2.00
2019-03-10T18:53:25.549Z,1.77
2019-03-10T18:55:53.243Z,1.70
2019-03-10T18:58:20.906Z,1.87
2019-03-10T19:00:48.258Z,2.77
2019-03-10T19:04:04.779Z,2.00
2019-03-10T19:06:32.504Z,2.40
2019-03-10T19:09:00.031Z,2.50
2019-03-10T19:11:27.750Z,2.17
2019-03-10T19:13:55.799Z,2.17
2019-03-10T19:16:23.310Z,2.40
2019-03-10T19:18:51.962Z,2.10
2019-03-10T19:21:19.308Z,2.60
2019-03-10T19:23:46.821Z,2.07
2019-03-10T19:26:14.394Z,1.83
2019-03-10T19:28:41.764Z,2.53
2019-03-10T19:31:09.230Z,2.70
2019-03-10T19:33:36.767Z,3.03
2019-03-10T19:36:05.603Z,2.70
2019-03-10T19:38:33.655Z,2.07
2019-03-10T19:41:01.234Z,2.90
2019-03-10T19:43:28.716Z,2.97
2019-03-10T19:45:56.457Z,2.13
2019-03-10T19:48:24.647Z,3.60
2019-03-10T19:50:52.484Z,2.53
2019-03-10T19:53:19.831Z,2.60
2019-03-10T19:55:47.352Z,2.33
2019-03-10T19:58:15.071Z,2.77
2019-03-10T20:00:42.929Z,2.27
2019-03-10T20:03:10.724Z,4.20
2019-03-10T20:05:38.751Z,3.40
2019-03-10T20:08:06.185Z,2.60
2019-03-10T20:10:33.981Z,2.60
2019-03-10T20:13:01.419Z,2.03
2019-03-10T20:15:29.183Z,2.20
2019-03-10T20:17:56.728Z,2.40
2019-03-10T20:20:24.445Z,2.60
2019-03-10T20:22:52.162Z,2.43
2019-03-10T20:25:19.640Z,2.77
2019-03-10T20:27:47.633Z,3.00
2019-03-10T20:30:16.497Z,2.40
2019-03-10T20:32:44.008Z,2.73
2019-03-10T20:35:11.378Z,2.87
2019-03-10T20:37:38.827Z,2.93
2019-03-10T20:40:07.289Z,3.10
2019-03-10T20:42:34.883Z,2.90
2019-03-10T20:45:02.570Z,2.60
2019-03-10T20:47:30.634Z,3.40
2019-03-10T20:49:58.616Z,3.47
2019-03-10T20:52:26.161Z,3.23
2019-03-10T20:54:54.547Z,2.47
2019-03-10T20:57:22.307Z,3.10
2019-03-10T21:00:00.001Z,2.50
2019-03-10T21:02:19.889Z,2.57
2019-03-10T21:04:47.506Z,2.83
2019-03-10T21:07:15.079Z,2.67
2019-03-10T21:09:42.459Z,2.77
2019-03-10T21:12:15.921Z,3.33
2019-03-10T21:14:43.659Z,3.30
2019-03-10T21:17:12.412Z,4.30
2019-03-10T21:19:40.031Z,3.17
2019-03-10T21:22:07.962Z,2.60
2019-03-10T21:24:35.363Z,2.90
2019-03-10T21:27:03.056Z,3.37
2019-03-10T21:29:31.497Z,2.83
2019-03-10T21:31:58.991Z,3.13
2019-03-10T21:34:26.865Z,3.30
2019-03-10T21:36:54.697Z,2.97
2019-03-10T21:39:33.918Z,3.13
2019-03-10T21:41:52.015Z,3.17
2019-03-10T21:44:26.697Z,3.73
2019-03-10T21:46:50.014Z,2.80
2019-03-10T21:49:17.857Z,3.00
2019-03-10T21:51:45.703Z,4.43
2019-03-10T21:54:13.550Z,3.33
2019-03-10T21:56:40.860Z,2.60
2019-03-10T21:59:08.689Z,3.40
2019-03-10T22:01:36.177Z,2.80
2019-03-10T22:04:04.335Z,3.23
2019-03-10T22:06:31.790Z,3.10
2019-03-10T22:08:59.772Z,2.90
2019-03-10T22:11:27.396Z,3.50
2019-03-10T22:13:54.967Z,3.30
2019-03-10T22:16:22.426Z,3.20
2019-03-10T22:18:49.877Z,3.47
2019-03-10T22:21:17.339Z,2.93
2019-03-10T22:23:45.139Z,2.97
2019-03-10T22:26:12.547Z,3.20
2019-03-10T22:28:40.071Z,3.03
2019-03-10T22:31:08.037Z,2.60
2019-03-10T22:33:35.454Z,3.13
2019-03-10T22:36:03.197Z,3.00
2019-03-10T22:38:30.655Z,3.80
2019-03-10T22:40:58.184Z,4.07
2019-03-10T22:43:25.629Z,2.30
2019-03-10T22:45:52.987Z,3.00
2019-03-10T22:48:20.376Z,1.80
2019-03-10T22:50:47.933Z,2.73
2019-03-10T22:53:16.519Z,2.57
2019-03-10T22:55:44.207Z,2.23
2019-03-10T22:58:11.858Z,3.83
2019-03-10T23:00:48.144Z,2.23
2019-03-10T23:03:16.407Z,3.20
2019-03-10T23:09:19.418Z,3.90
2019-03-10T23:11:47.018Z,3.43
2019-03-10T23:14:15.979Z,3.67
2019-03-10T23:16:43.491Z,3.07
2019-03-10T23:19:11.297Z,2.83
2019-03-10T23:21:38.827Z,2.00
2019-03-10T23:24:06.695Z,2.83
2019-03-10T23:26:34.496Z,2.37
2019-03-10T23:29:01.928Z,2.87
2019-03-10T23:31:29.416Z,2.93
2019-03-10T23:33:56.917Z,2.27
2019-03-10T23:36:24.254Z,2.67
2019-03-10T23:38:52.034Z,2.33
2019-03-10T23:41:19.834Z,2.40
2019-03-10T23:43:47.448Z,2.83
2019-03-10T23:46:14.978Z,3.87
2019-03-10T23:48:42.568Z,2.93
2019-03-10T23:51:10.067Z,2.77
2019-03-10T23:53:38.408Z,2.97
2019-03-10T23:56:06.126Z,2.80
2019-03-10T23:58:33.607Z,3.40
